Pagrindinis puslapis
METAR-TAF:

METAR-TAF

Oro uostai :

Batervortas, Malaizija

platuma: 05-27-58N, ilguma: 100-23-28E, Aukštis: 2 m

Dabartinis oras

Ataskaita buvo paskelbta 19 valandos ir 32 minutes, ne 18:00 UTC
Vėjas 3 kt iš Rytų
Temperatūra 27°C
Drėgmė 89%
Slėgis 1009 hPa
Matomumas: 8000 m
Mažai debesys ne aukštis 1700 ft, Liūtiniai kamuoliniai debesys.

METAR: WMKB 281800Z 08003KT 8000 FEW017CB 27/25 Q1009 NOSIG

Laikas: 21:32 (13:32 UTC)

Prognozė

Ataskaita buvo paskelbta 2 valandos ir 32 minutes, ne 11:00 UTC
Prognozė galioja nuo 29 metu 12 UTC su 30 metu 12 UTC
Vėjas 5 kt iš Šiaurės/Šiaurės Vakarų
Matomumas: 9000 m
Mažai debesys ne aukštis 2400 ft
Tapsmas
nuo 29 metu 14 UTC su 29 metu 16 UTC
Vėjas 3 kt nuo kintamojo kryptimis
Matomumas: 8000 m

TAF: WMKB 291100Z 2912/3012 33005KT 9000 FEW024 BECMG 2914/2916 VRB03KT 8000

Orai ataskaitas ir orų prognozės (METAR, TAF).

turimą stotys yra geltonos ir raudonos taškus žemėlapyje.

Perkelti pele per norėdami pamatyti stoties vardą.

Tada spustelėkite, norėdami matyti oro stebėjimo ir prognozės.

Norėdami pakeisti žemėlapį: spustelėkite ant žalios mygtukų su juodo kryžiaus žemyn,; žalią mygtuką su brūkšneliu, jei norite nutolinti; arba žalių rodyklių gretimoms žemėlapius.


METAR-TAF: